sensor_id;sensor_type;location;lat;lon;timestamp;temperature;humidity
35085;SHT85;21267;51.032;6.998;2023-02-28T00:00:42;0.35;74.64
35085;SHT85;21267;51.032;6.998;2023-02-28T00:03:12;0.25;74.87
35085;SHT85;21267;51.032;6.998;2023-02-28T00:05:40;0.26;74.96
35085;SHT85;21267;51.032;6.998;2023-02-28T00:08:11;0.35;74.82
35085;SHT85;21267;51.032;6.998;2023-02-28T00:10:42;0.22;74.88
35085;SHT85;21267;51.032;6.998;2023-02-28T00:13:12;0.29;74.98
35085;SHT85;21267;51.032;6.998;2023-02-28T00:15:39;0.21;75.12
35085;SHT85;21267;51.032;6.998;2023-02-28T00:18:10;0.24;75.00
35085;SHT85;21267;51.032;6.998;2023-02-28T00:20:38;0.37;74.89
35085;SHT85;21267;51.032;6.998;2023-02-28T00:23:05;0.32;74.77
35085;SHT85;21267;51.032;6.998;2023-02-28T00:25:35;0.37;74.84
35085;SHT85;21267;51.032;6.998;2023-02-28T00:28:03;0.25;75.13
35085;SHT85;21267;51.032;6.998;2023-02-28T00:30:30;0.25;75.16
35085;SHT85;21267;51.032;6.998;2023-02-28T00:32:58;0.22;75.31
35085;SHT85;21267;51.032;6.998;2023-02-28T00:35:29;0.19;75.37
35085;SHT85;21267;51.032;6.998;2023-02-28T00:38:02;0.19;75.45
35085;SHT85;21267;51.032;6.998;2023-02-28T00:40:29;0.18;75.35
35085;SHT85;21267;51.032;6.998;2023-02-28T00:43:11;0.17;75.54
35085;SHT85;21267;51.032;6.998;2023-02-28T00:46:11;0.05;75.84
35085;SHT85;21267;51.032;6.998;2023-02-28T00:48:38;0.08;75.81
35085;SHT85;21267;51.032;6.998;2023-02-28T00:51:14;0.07;75.88
35085;SHT85;21267;51.032;6.998;2023-02-28T00:53:44;0.05;76.02
35085;SHT85;21267;51.032;6.998;2023-02-28T00:56:11;0.02;76.09
35085;SHT85;21267;51.032;6.998;2023-02-28T01:06:28;0.04;76.39
35085;SHT85;21267;51.032;6.998;2023-02-28T01:09:12;0.05;76.20
35085;SHT85;21267;51.032;6.998;2023-02-28T01:12:15;-0.06;76.47
35085;SHT85;21267;51.032;6.998;2023-02-28T01:15:00;-0.09;76.55
35085;SHT85;21267;51.032;6.998;2023-02-28T01:17:31;-0.06;76.73
35085;SHT85;21267;51.032;6.998;2023-02-28T01:19:59;-0.09;76.77
35085;SHT85;21267;51.032;6.998;2023-02-28T01:22:40;-0.06;76.62
35085;SHT85;21267;51.032;6.998;2023-02-28T01:25:18;0.01;76.52
35085;SHT85;21267;51.032;6.998;2023-02-28T01:27:54;0.01;76.57
35085;SHT85;21267;51.032;6.998;2023-02-28T01:30:28;0.01;76.39
35085;SHT85;21267;51.032;6.998;2023-02-28T01:33:01;-0.02;76.48
35085;SHT85;21267;51.032;6.998;2023-02-28T01:35:47;-0.03;76.49
35085;SHT85;21267;51.032;6.998;2023-02-28T01:38:19;0.01;76.19
35085;SHT85;21267;51.032;6.998;2023-02-28T01:41:07;-0.02;76.06
35085;SHT85;21267;51.032;6.998;2023-02-28T01:46:16;0.08;75.97
35085;SHT85;21267;51.032;6.998;2023-02-28T01:52:12;0.01;75.91
35085;SHT85;21267;51.032;6.998;2023-02-28T01:55:07;0.00;75.91
35085;SHT85;21267;51.032;6.998;2023-02-28T01:57:56;-0.03;76.01
35085;SHT85;21267;51.032;6.998;2023-02-28T02:01:21;0.02;75.81
35085;SHT85;21267;51.032;6.998;2023-02-28T02:04:18;-0.05;75.84
35085;SHT85;21267;51.032;6.998;2023-02-28T02:07:30;0.15;75.39
35085;SHT85;21267;51.032;6.998;2023-02-28T02:10:21;-0.02;75.62
35085;SHT85;21267;51.032;6.998;2023-02-28T02:27:38;-0.02;74.75
35085;SHT85;21267;51.032;6.998;2023-02-28T02:34:34;0.08;74.32
35085;SHT85;21267;51.032;6.998;2023-02-28T02:41:17;0.02;73.84
35085;SHT85;21267;51.032;6.998;2023-02-28T02:44:10;-0.13;74.34
35085;SHT85;21267;51.032;6.998;2023-02-28T02:46:47;-0.10;74.43
35085;SHT85;21267;51.032;6.998;2023-02-28T02:49:31;-0.06;74.10
35085;SHT85;21267;51.032;6.998;2023-02-28T02:52:08;-0.19;74.51
35085;SHT85;21267;51.032;6.998;2023-02-28T02:54:59;-0.17;74.69
35085;SHT85;21267;51.032;6.998;2023-02-28T02:57:50;-0.24;75.00
35085;SHT85;21267;51.032;6.998;2023-02-28T03:00:22;-0.24;75.07
35085;SHT85;21267;51.032;6.998;2023-02-28T03:03:21;-0.29;75.11
35085;SHT85;21267;51.032;6.998;2023-02-28T03:06:18;-0.36;75.24
35085;SHT85;21267;51.032;6.998;2023-02-28T03:09:00;-0.30;75.46
35085;SHT85;21267;51.032;6.998;2023-02-28T03:12:13;-0.31;75.82
35085;SHT85;21267;51.032;6.998;2023-02-28T03:15:52;-0.47;76.32
35085;SHT85;21267;51.032;6.998;2023-02-28T03:21:32;-0.65;77.00
35085;SHT85;21267;51.032;6.998;2023-02-28T03:30:22;-0.68;77.24
35085;SHT85;21267;51.032;6.998;2023-02-28T03:36:03;-0.68;77.55
35085;SHT85;21267;51.032;6.998;2023-02-28T03:38:38;-0.71;77.38
35085;SHT85;21267;51.032;6.998;2023-02-28T03:41:19;-0.62;77.63
35085;SHT85;21267;51.032;6.998;2023-02-28T03:43:50;-0.57;77.41
35085;SHT85;21267;51.032;6.998;2023-02-28T03:46:30;-0.64;77.40
35085;SHT85;21267;51.032;6.998;2023-02-28T03:49:08;-0.67;77.42
35085;SHT85;21267;51.032;6.998;2023-02-28T03:51:39;-0.62;77.73
35085;SHT85;21267;51.032;6.998;2023-02-28T03:54:18;-0.65;77.70
35085;SHT85;21267;51.032;6.998;2023-02-28T03:57:00;-0.68;77.86
35085;SHT85;21267;51.032;6.998;2023-02-28T04:00:09;-0.71;77.95
35085;SHT85;21267;51.032;6.998;2023-02-28T04:02:37;-0.74;78.27
35085;SHT85;21267;51.032;6.998;2023-02-28T04:05:04;-0.60;77.75
35085;SHT85;21267;51.032;6.998;2023-02-28T04:07:35;-0.65;77.99
35085;SHT85;21267;51.032;6.998;2023-02-28T04:10:03;-0.81;78.34
35085;SHT85;21267;51.032;6.998;2023-02-28T04:12:31;-0.85;78.48
35085;SHT85;21267;51.032;6.998;2023-02-28T04:15:06;-0.88;78.30
35085;SHT85;21267;51.032;6.998;2023-02-28T04:17:37;-0.92;78.15
35085;SHT85;21267;51.032;6.998;2023-02-28T04:20:18;-0.87;78.02
35085;SHT85;21267;51.032;6.998;2023-02-28T04:22:55;-0.87;78.08
35085;SHT85;21267;51.032;6.998;2023-02-28T04:25:33;-0.82;77.77
35085;SHT85;21267;51.032;6.998;2023-02-28T04:28:21;-0.85;77.73
35085;SHT85;21267;51.032;6.998;2023-02-28T04:31:03;-0.81;77.28
35085;SHT85;21267;51.032;6.998;2023-02-28T04:33:35;-0.84;77.12
35085;SHT85;21267;51.032;6.998;2023-02-28T04:36:08;-0.75;76.66
35085;SHT85;21267;51.032;6.998;2023-02-28T04:38:43;-0.71;76.34
35085;SHT85;21267;51.032;6.998;2023-02-28T04:41:31;-0.62;75.84
35085;SHT85;21267;51.032;6.998;2023-02-28T04:44:09;-0.68;75.93
35085;SHT85;21267;51.032;6.998;2023-02-28T04:46:53;-0.67;75.68
35085;SHT85;21267;51.032;6.998;2023-02-28T04:49:21;-0.72;75.65
35085;SHT85;21267;51.032;6.998;2023-02-28T04:51:53;-0.65;75.47
35085;SHT85;21267;51.032;6.998;2023-02-28T04:54:37;-0.65;75.21
35085;SHT85;21267;51.032;6.998;2023-02-28T04:57:22;-0.60;75.27
35085;SHT85;21267;51.032;6.998;2023-02-28T05:00:12;-0.62;74.95
35085;SHT85;21267;51.032;6.998;2023-02-28T05:03:09;-0.60;74.90
35085;SHT85;21267;51.032;6.998;2023-02-28T05:05:56;-0.56;74.81
35085;SHT85;21267;51.032;6.998;2023-02-28T05:08:25;-0.58;74.92
35085;SHT85;21267;51.032;6.998;2023-02-28T05:10:58;-0.61;74.87
35085;SHT85;21267;51.032;6.998;2023-02-28T05:13:34;-0.61;74.93
35085;SHT85;21267;51.032;6.998;2023-02-28T05:16:44;-0.65;75.03
35085;SHT85;21267;51.032;6.998;2023-02-28T05:19:30;-0.72;75.10
35085;SHT85;21267;51.032;6.998;2023-02-28T05:22:14;-0.70;75.16
35085;SHT85;21267;51.032;6.998;2023-02-28T05:25:21;-0.68;75.16
35085;SHT85;21267;51.032;6.998;2023-02-28T05:27:51;-0.79;75.25
35085;SHT85;21267;51.032;6.998;2023-02-28T05:30:41;-0.74;75.23
35085;SHT85;21267;51.032;6.998;2023-02-28T05:33:18;-0.65;74.80
35085;SHT85;21267;51.032;6.998;2023-02-28T05:35:48;-0.61;74.52
35085;SHT85;21267;51.032;6.998;2023-02-28T05:38:31;-0.62;74.31
35085;SHT85;21267;51.032;6.998;2023-02-28T05:41:17;-0.65;74.27
35085;SHT85;21267;51.032;6.998;2023-02-28T05:44:02;-0.57;74.12
35085;SHT85;21267;51.032;6.998;2023-02-28T05:46:32;-0.56;73.74
35085;SHT85;21267;51.032;6.998;2023-02-28T05:48:59;-0.61;73.77
35085;SHT85;21267;51.032;6.998;2023-02-28T05:51:27;-0.67;73.79
35085;SHT85;21267;51.032;6.998;2023-02-28T05:53:54;-0.47;73.81
35085;SHT85;21267;51.032;6.998;2023-02-28T05:56:21;-0.57;73.33
35085;SHT85;21267;51.032;6.998;2023-02-28T05:58:48;-0.56;73.22
35085;SHT85;21267;51.032;6.998;2023-02-28T06:01:34;-0.58;73.07
35085;SHT85;21267;51.032;6.998;2023-02-28T06:04:04;-0.57;72.81
35085;SHT85;21267;51.032;6.998;2023-02-28T06:06:48;-0.60;72.69
35085;SHT85;21267;51.032;6.998;2023-02-28T06:09:18;-0.56;73.48
35085;SHT85;21267;51.032;6.998;2023-02-28T06:11:45;-0.65;72.74
35085;SHT85;21267;51.032;6.998;2023-02-28T06:14:18;-0.75;72.84
35085;SHT85;21267;51.032;6.998;2023-02-28T06:16:45;-0.77;72.87
35085;SHT85;21267;51.032;6.998;2023-02-28T06:19:13;-0.77;72.81
35085;SHT85;21267;51.032;6.998;2023-02-28T06:21:40;-0.78;72.79
35085;SHT85;21267;51.032;6.998;2023-02-28T06:24:08;-0.81;72.90
35085;SHT85;21267;51.032;6.998;2023-02-28T06:26:37;-0.84;72.96
35085;SHT85;21267;51.032;6.998;2023-02-28T06:29:04;-0.79;72.86
35085;SHT85;21267;51.032;6.998;2023-02-28T06:31:31;-0.81;72.73
35085;SHT85;21267;51.032;6.998;2023-02-28T06:33:58;-0.77;72.66
35085;SHT85;21267;51.032;6.998;2023-02-28T06:36:25;-0.77;72.36
35085;SHT85;21267;51.032;6.998;2023-02-28T06:38:51;-0.57;72.49
35085;SHT85;21267;51.032;6.998;2023-02-28T06:41:24;-0.58;71.77
35085;SHT85;21267;51.032;6.998;2023-02-28T06:43:58;-0.47;72.11
35085;SHT85;21267;51.032;6.998;2023-02-28T06:46:24;-0.40;71.87
35085;SHT85;21267;51.032;6.998;2023-02-28T06:48:53;-0.24;70.48
35085;SHT85;21267;51.032;6.998;2023-02-28T06:51:20;-0.02;69.84
35085;SHT85;21267;51.032;6.998;2023-02-28T06:53:48;0.22;69.40
35085;SHT85;21267;51.032;6.998;2023-02-28T06:56:18;0.14;68.68
35085;SHT85;21267;51.032;6.998;2023-02-28T06:58:47;0.55;68.24
35085;SHT85;21267;51.032;6.998;2023-02-28T07:01:17;0.39;67.66
35085;SHT85;21267;51.032;6.998;2023-02-28T07:03:46;0.60;67.03
35085;SHT85;21267;51.032;6.998;2023-02-28T07:06:13;0.75;66.52
35085;SHT85;21267;51.032;6.998;2023-02-28T07:08:40;0.83;66.14
35085;SHT85;21267;51.032;6.998;2023-02-28T07:11:07;1.39;64.67
35085;SHT85;21267;51.032;6.998;2023-02-28T07:13:35;1.62;64.52
35085;SHT85;21267;51.032;6.998;2023-02-28T07:16:04;1.34;63.88
35085;SHT85;21267;51.032;6.998;2023-02-28T07:18:31;1.35;63.20
35085;SHT85;21267;51.032;6.998;2023-02-28T07:21:02;1.35;62.92
35085;SHT85;21267;51.032;6.998;2023-02-28T07:23:28;1.97;63.00
35085;SHT85;21267;51.032;6.998;2023-02-28T07:25:55;1.68;61.48
35085;SHT85;21267;51.032;6.998;2023-02-28T07:28:23;1.62;61.20
35085;SHT85;21267;51.032;6.998;2023-02-28T07:33:40;2.21;59.92
35085;SHT85;21267;51.032;6.998;2023-02-28T07:36:10;2.41;58.93
35085;SHT85;21267;51.032;6.998;2023-02-28T07:38:43;2.42;58.24
35085;SHT85;21267;51.032;6.998;2023-02-28T07:41:14;2.58;58.16
35085;SHT85;21267;51.032;6.998;2023-02-28T07:43:41;2.88;56.95
35085;SHT85;21267;51.032;6.998;2023-02-28T07:46:16;2.64;56.50
35085;SHT85;21267;51.032;6.998;2023-02-28T07:48:44;2.72;57.13
35085;SHT85;21267;51.032;6.998;2023-02-28T07:51:11;3.03;56.69
35085;SHT85;21267;51.032;6.998;2023-02-28T07:53:37;2.91;55.48
35085;SHT85;21267;51.032;6.998;2023-02-28T07:56:04;3.23;55.35
35085;SHT85;21267;51.032;6.998;2023-02-28T07:58:31;2.75;55.49
35085;SHT85;21267;51.032;6.998;2023-02-28T08:01:08;3.94;54.16
35085;SHT85;21267;51.032;6.998;2023-02-28T08:03:36;3.23;54.56
35085;SHT85;21267;51.032;6.998;2023-02-28T08:06:04;3.41;54.37
35085;SHT85;21267;51.032;6.998;2023-02-28T08:08:32;3.57;52.96
35085;SHT85;21267;51.032;6.998;2023-02-28T08:11:02;3.20;54.05
35085;SHT85;21267;51.032;6.998;2023-02-28T08:13:30;4.61;52.59
35085;SHT85;21267;51.032;6.998;2023-02-28T08:16:01;3.37;53.28
35085;SHT85;21267;51.032;6.998;2023-02-28T08:18:28;3.43;53.62
35085;SHT85;21267;51.032;6.998;2023-02-28T08:20:55;3.68;52.76
35085;SHT85;21267;51.032;6.998;2023-02-28T08:23:21;4.39;51.94
35085;SHT85;21267;51.032;6.998;2023-02-28T08:25:55;4.88;49.12
35085;SHT85;21267;51.032;6.998;2023-02-28T08:28:23;4.01;50.87
35085;SHT85;21267;51.032;6.998;2023-02-28T08:30:53;4.08;51.28
35085;SHT85;21267;51.032;6.998;2023-02-28T08:33:20;3.84;50.64
35085;SHT85;21267;51.032;6.998;2023-02-28T08:35:47;3.82;50.32
35085;SHT85;21267;51.032;6.998;2023-02-28T08:38:15;4.49;49.63
35085;SHT85;21267;51.032;6.998;2023-02-28T08:40:43;3.99;48.48
35085;SHT85;21267;51.032;6.998;2023-02-28T08:43:09;4.05;49.44
35085;SHT85;21267;51.032;6.998;2023-02-28T08:45:37;4.22;48.59
35085;SHT85;21267;51.032;6.998;2023-02-28T08:48:04;4.73;48.84
35085;SHT85;21267;51.032;6.998;2023-02-28T08:50:31;5.70;48.00
35085;SHT85;21267;51.032;6.998;2023-02-28T08:52:57;4.74;46.94
35085;SHT85;21267;51.032;6.998;2023-02-28T08:55:24;4.52;46.73
35085;SHT85;21267;51.032;6.998;2023-02-28T08:57:51;5.07;47.70
35085;SHT85;21267;51.032;6.998;2023-02-28T09:00:19;4.60;46.08
35085;SHT85;21267;51.032;6.998;2023-02-28T09:02:46;4.91;45.88
35085;SHT85;21267;51.032;6.998;2023-02-28T09:05:12;4.91;46.67
35085;SHT85;21267;51.032;6.998;2023-02-28T09:07:39;5.98;45.54
35085;SHT85;21267;51.032;6.998;2023-02-28T09:10:06;6.87;43.10
35085;SHT85;21267;51.032;6.998;2023-02-28T09:12:34;5.45;45.91
35085;SHT85;21267;51.032;6.998;2023-02-28T09:15:02;5.08;46.67
35085;SHT85;21267;51.032;6.998;2023-02-28T09:17:29;5.32;46.07
35085;SHT85;21267;51.032;6.998;2023-02-28T09:19:57;5.32;46.55
35085;SHT85;21267;51.032;6.998;2023-02-28T09:22:23;6.13;43.12
35085;SHT85;21267;51.032;6.998;2023-02-28T09:24:50;6.53;43.53
35085;SHT85;21267;51.032;6.998;2023-02-28T09:27:17;7.10;44.05
35085;SHT85;21267;51.032;6.998;2023-02-28T09:29:44;6.20;43.79
35085;SHT85;21267;51.032;6.998;2023-02-28T09:32:11;6.61;43.93
35085;SHT85;21267;51.032;6.998;2023-02-28T09:34:37;7.08;42.84
35085;SHT85;21267;51.032;6.998;2023-02-28T09:37:04;7.13;42.77
35085;SHT85;21267;51.032;6.998;2023-02-28T09:39:31;5.21;45.45
35085;SHT85;21267;51.032;6.998;2023-02-28T09:41:58;5.62;45.22
35085;SHT85;21267;51.032;6.998;2023-02-28T09:44:29;6.26;44.14
35085;SHT85;21267;51.032;6.998;2023-02-28T09:49:52;6.22;44.91
35085;SHT85;21267;51.032;6.998;2023-02-28T09:52:24;7.30;44.29
35085;SHT85;21267;51.032;6.998;2023-02-28T09:54:53;6.46;43.64
35085;SHT85;21267;51.032;6.998;2023-02-28T09:57:38;6.87;43.85
35085;SHT85;21267;51.032;6.998;2023-02-28T10:00:23;7.01;41.86
35085;SHT85;21267;51.032;6.998;2023-02-28T10:05:23;8.53;41.12
35085;SHT85;21267;51.032;6.998;2023-02-28T10:08:26;6.01;44.51
35085;SHT85;21267;51.032;6.998;2023-02-28T10:11:06;6.82;43.31
35085;SHT85;21267;51.032;6.998;2023-02-28T10:13:53;8.41;42.40
35085;SHT85;21267;51.032;6.998;2023-02-28T10:16:38;8.00;40.45
35085;SHT85;21267;51.032;6.998;2023-02-28T10:19:16;8.22;39.10
35085;SHT85;21267;51.032;6.998;2023-02-28T10:27:17;6.25;41.07
35085;SHT85;21267;51.032;6.998;2023-02-28T10:29:50;6.80;41.62
35085;SHT85;21267;51.032;6.998;2023-02-28T10:32:25;6.79;42.44
35085;SHT85;21267;51.032;6.998;2023-02-28T10:35:16;7.05;42.09
35085;SHT85;21267;51.032;6.998;2023-02-28T10:37:46;8.04;39.90
35085;SHT85;21267;51.032;6.998;2023-02-28T10:43:19;6.94;41.82
35085;SHT85;21267;51.032;6.998;2023-02-28T10:51:18;5.80;44.70
35085;SHT85;21267;51.032;6.998;2023-02-28T10:53:55;5.82;46.25
35085;SHT85;21267;51.032;6.998;2023-02-28T10:56:28;6.75;43.77
35085;SHT85;21267;51.032;6.998;2023-02-28T10:59:00;6.66;43.92
35085;SHT85;21267;51.032;6.998;2023-02-28T11:03:57;6.48;44.40
35085;SHT85;21267;51.032;6.998;2023-02-28T11:06:33;8.12;41.11
35085;SHT85;21267;51.032;6.998;2023-02-28T11:09:04;7.73;40.76
35085;SHT85;21267;51.032;6.998;2023-02-28T11:11:43;7.34;42.40
35085;SHT85;21267;51.032;6.998;2023-02-28T11:14:20;7.55;42.74
35085;SHT85;21267;51.032;6.998;2023-02-28T11:16:49;7.72;42.57
35085;SHT85;21267;51.032;6.998;2023-02-28T11:19:25;7.18;43.82
35085;SHT85;21267;51.032;6.998;2023-02-28T11:21:59;7.87;42.98
35085;SHT85;21267;51.032;6.998;2023-02-28T11:24:33;8.02;41.36
35085;SHT85;21267;51.032;6.998;2023-02-28T11:27:01;8.04;41.31
35085;SHT85;21267;51.032;6.998;2023-02-28T11:29:30;7.14;43.39
35085;SHT85;21267;51.032;6.998;2023-02-28T11:34:36;8.67;41.46
35085;SHT85;21267;51.032;6.998;2023-02-28T11:37:08;7.36;44.03
35085;SHT85;21267;51.032;6.998;2023-02-28T11:39:36;9.63;40.15
35085;SHT85;21267;51.032;6.998;2023-02-28T11:48:04;10.18;39.47
35085;SHT85;21267;51.032;6.998;2023-02-28T11:51:00;7.82;41.98
35085;SHT85;21267;51.032;6.998;2023-02-28T11:57:21;7.05;42.66
35085;SHT85;21267;51.032;6.998;2023-02-28T12:06:30;10.88;36.69
35085;SHT85;21267;51.032;6.998;2023-02-28T12:11:59;8.36;40.08
35085;SHT85;21267;51.032;6.998;2023-02-28T12:17:51;7.21;42.33
35085;SHT85;21267;51.032;6.998;2023-02-28T12:28:17;9.70;38.09
35085;SHT85;21267;51.032;6.998;2023-02-28T12:30:56;9.13;38.96
35085;SHT85;21267;51.032;6.998;2023-02-28T12:33:27;8.68;39.51
35085;SHT85;21267;51.032;6.998;2023-02-28T12:36:05;8.38;41.10
35085;SHT85;21267;51.032;6.998;2023-02-28T12:38:42;7.87;41.85
35085;SHT85;21267;51.032;6.998;2023-02-28T12:41:12;7.82;41.04
35085;SHT85;21267;51.032;6.998;2023-02-28T12:43:52;8.60;41.47
35085;SHT85;21267;51.032;6.998;2023-02-28T12:46:35;9.12;39.57
35085;SHT85;21267;51.032;6.998;2023-02-28T12:49:10;8.31;41.64
35085;SHT85;21267;51.032;6.998;2023-02-28T12:51:40;7.86;42.36
35085;SHT85;21267;51.032;6.998;2023-02-28T12:54:24;8.69;40.67
35085;SHT85;21267;51.032;6.998;2023-02-28T12:59:29;8.64;39.35
35085;SHT85;21267;51.032;6.998;2023-02-28T13:10:51;11.07;37.28
35085;SHT85;21267;51.032;6.998;2023-02-28T13:13:24;10.50;36.54
35085;SHT85;21267;51.032;6.998;2023-02-28T13:16:07;11.15;36.79
35085;SHT85;21267;51.032;6.998;2023-02-28T13:18:37;9.81;37.92
35085;SHT85;21267;51.032;6.998;2023-02-28T13:21:08;9.46;38.69
35085;SHT85;21267;51.032;6.998;2023-02-28T13:26:13;10.11;38.53
35085;SHT85;21267;51.032;6.998;2023-02-28T13:31:15;9.23;39.61
35085;SHT85;21267;51.032;6.998;2023-02-28T13:41:44;8.58;40.56
35085;SHT85;21267;51.032;6.998;2023-02-28T13:44:20;9.22;40.08
35085;SHT85;21267;51.032;6.998;2023-02-28T14:00:16;9.18;39.87
35085;SHT85;21267;51.032;6.998;2023-02-28T14:02:59;9.23;40.39
35085;SHT85;21267;51.032;6.998;2023-02-28T14:05:29;8.62;41.64
35085;SHT85;21267;51.032;6.998;2023-02-28T14:07:59;10.01;39.31
35085;SHT85;21267;51.032;6.998;2023-02-28T14:10:30;10.29;38.06
35085;SHT85;21267;51.032;6.998;2023-02-28T14:18:01;9.65;39.54
35085;SHT85;21267;51.032;6.998;2023-02-28T14:20:40;9.75;40.03
35085;SHT85;21267;51.032;6.998;2023-02-28T14:23:22;9.85;39.99
35085;SHT85;21267;51.032;6.998;2023-02-28T14:31:31;10.56;37.68
35085;SHT85;21267;51.032;6.998;2023-02-28T14:36:53;9.81;38.61
35085;SHT85;21267;51.032;6.998;2023-02-28T14:39:25;10.74;36.79
35085;SHT85;21267;51.032;6.998;2023-02-28T14:41:53;10.70;36.75
35085;SHT85;21267;51.032;6.998;2023-02-28T14:44:22;8.71;40.11
35085;SHT85;21267;51.032;6.998;2023-02-28T14:46:57;9.61;38.94
35085;SHT85;21267;51.032;6.998;2023-02-28T14:49:28;9.91;38.71
35085;SHT85;21267;51.032;6.998;2023-02-28T14:52:20;9.01;39.49
35085;SHT85;21267;51.032;6.998;2023-02-28T14:54:53;9.67;39.35
35085;SHT85;21267;51.032;6.998;2023-02-28T14:57:29;10.91;37.55
35085;SHT85;21267;51.032;6.998;2023-02-28T15:00:06;11.04;36.52
35085;SHT85;21267;51.032;6.998;2023-02-28T15:02:39;11.45;35.67
35085;SHT85;21267;51.032;6.998;2023-02-28T15:07:39;9.34;40.09
35085;SHT85;21267;51.032;6.998;2023-02-28T15:10:19;8.75;40.63
35085;SHT85;21267;51.032;6.998;2023-02-28T15:12:53;9.01;40.22
35085;SHT85;21267;51.032;6.998;2023-02-28T15:15:27;8.78;40.09
35085;SHT85;21267;51.032;6.998;2023-02-28T15:21:05;8.33;41.42
35085;SHT85;21267;51.032;6.998;2023-02-28T15:23:34;9.29;41.62
35085;SHT85;21267;51.032;6.998;2023-02-28T15:26:48;10.08;39.04
35085;SHT85;21267;51.032;6.998;2023-02-28T19:08:08;3.16;65.08
35085;SHT85;21267;51.032;6.998;2023-02-28T19:11:07;3.15;65.43
35085;SHT85;21267;51.032;6.998;2023-02-28T19:13:48;3.03;65.69
35085;SHT85;21267;51.032;6.998;2023-02-28T19:17:22;3.05;65.92
35085;SHT85;21267;51.032;6.998;2023-02-28T19:27:20;2.79;66.50
35085;SHT85;21267;51.032;6.998;2023-02-28T19:33:21;2.74;66.69
35085;SHT85;21267;51.032;6.998;2023-02-28T19:42:26;2.58;67.25
35085;SHT85;21267;51.032;6.998;2023-02-28T19:44:59;2.64;67.26
35085;SHT85;21267;51.032;6.998;2023-02-28T19:48:34;2.57;67.44
35085;SHT85;21267;51.032;6.998;2023-02-28T19:51:07;2.48;67.75
35085;SHT85;21267;51.032;6.998;2023-02-28T19:53:41;2.47;67.86
35085;SHT85;21267;51.032;6.998;2023-02-28T19:56:14;2.41;68.02
35085;SHT85;21267;51.032;6.998;2023-02-28T19:58:50;2.30;67.97
35085;SHT85;21267;51.032;6.998;2023-02-28T20:01:44;2.36;67.79
35085;SHT85;21267;51.032;6.998;2023-02-28T20:04:26;2.23;68.07
35085;SHT85;21267;51.032;6.998;2023-02-28T20:07:30;2.09;68.68
35085;SHT85;21267;51.032;6.998;2023-02-28T20:10:20;2.13;68.64
35085;SHT85;21267;51.032;6.998;2023-02-28T20:12:47;2.18;68.62
35085;SHT85;21267;51.032;6.998;2023-02-28T20:15:15;2.21;68.46
35085;SHT85;21267;51.032;6.998;2023-02-28T20:17:54;2.24;68.61
35085;SHT85;21267;51.032;6.998;2023-02-28T20:20:36;2.28;68.62
35085;SHT85;21267;51.032;6.998;2023-02-28T20:23:40;2.11;68.74
35085;SHT85;21267;51.032;6.998;2023-02-28T20:27:02;2.03;69.20
35085;SHT85;21267;51.032;6.998;2023-02-28T20:30:17;1.96;69.52
35085;SHT85;21267;51.032;6.998;2023-02-28T20:37:08;1.79;69.94
35085;SHT85;21267;51.032;6.998;2023-02-28T20:51:51;1.75;70.09
